createdAt,value
2018-05-07T00:01:41.948Z,41.98
2018-05-07T00:04:10.209Z,42.03
2018-05-07T00:06:39.291Z,43.39
2018-05-07T00:09:07.603Z,44.45
2018-05-07T00:11:35.908Z,44.69
2018-05-07T00:14:04.252Z,45.88
2018-05-07T00:16:32.421Z,46.85
2018-05-07T00:19:00.743Z,47.05
2018-05-07T00:21:29.813Z,46.13
2018-05-07T00:23:58.107Z,47.52
2018-05-07T00:26:27.140Z,47.16
2018-05-07T00:28:55.417Z,45.32
2018-05-07T00:31:23.936Z,47.23
2018-05-07T00:33:52.985Z,46.03
2018-05-07T00:36:21.293Z,44.48
2018-05-07T00:38:49.564Z,45.57
2018-05-07T00:41:17.840Z,44.75
2018-05-07T00:43:46.170Z,44.64
2018-05-07T00:46:14.422Z,43.84
2018-05-07T00:48:43.465Z,43.83
2018-05-07T00:51:11.785Z,42.95
2018-05-07T00:53:40.823Z,43.00
2018-05-07T00:56:09.171Z,41.77
2018-05-07T00:58:37.451Z,41.60
2018-05-07T01:01:05.741Z,40.72
2018-05-07T01:03:34.025Z,41.29
2018-05-07T01:06:02.322Z,41.81
2018-05-07T01:08:30.598Z,40.95
2018-05-07T01:10:58.983Z,41.10
2018-05-07T01:13:27.645Z,40.50
2018-05-07T01:15:55.925Z,41.23
2018-05-07T01:18:24.190Z,41.10
2018-05-07T01:20:52.520Z,41.69
2018-05-07T01:23:21.551Z,40.93
2018-05-07T01:25:49.825Z,40.78
2018-05-07T01:28:18.128Z,40.58
2018-05-07T01:30:46.446Z,40.75
2018-05-07T01:33:15.485Z,40.18
2018-05-07T01:35:44.528Z,40.38
2018-05-07T01:38:13.598Z,40.34
2018-05-07T01:40:41.856Z,40.63
2018-05-07T01:43:10.148Z,40.29
2018-05-07T01:45:38.435Z,40.89
2018-05-07T01:48:07.495Z,40.94
2018-05-07T01:50:36.527Z,40.46
2018-05-07T01:53:05.581Z,40.55
2018-05-07T01:55:33.846Z,40.17
2018-05-07T01:58:02.159Z,40.72
2018-05-07T02:00:30.867Z,40.47
2018-05-07T02:02:59.149Z,41.09
2018-05-07T02:05:27.508Z,40.85
2018-05-07T02:07:56.541Z,41.71
2018-05-07T02:10:24.821Z,41.96
2018-05-07T02:12:53.102Z,41.56
2018-05-07T02:15:21.387Z,41.70
2018-05-07T02:17:49.652Z,41.74
2018-05-07T02:20:17.961Z,42.29
2018-05-07T02:22:46.442Z,42.47
2018-05-07T02:25:14.731Z,42.44
2018-05-07T02:27:43.808Z,42.29
2018-05-07T02:30:12.112Z,42.39
2018-05-07T02:32:41.162Z,42.59
2018-05-07T02:35:09.489Z,42.51
2018-05-07T02:37:37.770Z,42.35
2018-05-07T02:40:06.045Z,42.30
2018-05-07T02:42:34.348Z,42.20
2018-05-07T02:45:02.693Z,42.29
2018-05-07T02:47:30.969Z,42.28
2018-05-07T02:49:59.241Z,42.41
2018-05-07T02:52:27.525Z,42.00
2018-05-07T02:54:55.830Z,41.73
2018-05-07T02:57:24.116Z,41.96
2018-05-07T02:59:52.374Z,42.40
2018-05-07T03:02:20.649Z,42.51
2018-05-07T03:04:48.907Z,42.57
2018-05-07T03:07:17.385Z,42.63
2018-05-07T03:09:45.667Z,42.62
2018-05-07T03:12:13.991Z,42.79
2018-05-07T03:14:43.026Z,42.93
2018-05-07T03:17:11.313Z,43.26
2018-05-07T03:19:39.585Z,43.07
2018-05-07T03:22:07.892Z,42.83
2018-05-07T03:24:36.215Z,42.90
2018-05-07T03:27:04.538Z,42.82
2018-05-07T03:29:32.962Z,42.61
2018-05-07T03:32:01.246Z,42.71
2018-05-07T03:34:29.513Z,42.62
2018-05-07T03:36:58.546Z,42.74
2018-05-07T03:39:26.822Z,42.84
2018-05-07T03:41:55.100Z,43.08
2018-05-07T03:44:23.359Z,43.15
2018-05-07T03:46:51.665Z,43.30
2018-05-07T03:49:19.938Z,43.64
2018-05-07T03:51:48.223Z,43.52
2018-05-07T03:54:16.482Z,43.65
2018-05-07T03:56:44.775Z,43.92
2018-05-07T03:59:13.033Z,43.92
2018-05-07T04:01:41.673Z,44.08
2018-05-07T04:04:09.939Z,44.29
2018-05-07T04:06:39.011Z,44.76
2018-05-07T04:09:07.269Z,44.73
2018-05-07T04:11:35.558Z,44.10
2018-05-07T04:14:03.974Z,44.78
2018-05-07T04:16:49.958Z,44.91
2018-05-07T04:19:36.798Z,45.29
2018-05-07T04:22:22.805Z,45.38
2018-05-07T04:24:51.075Z,45.48
2018-05-07T04:27:19.343Z,45.31
2018-05-07T04:29:47.616Z,45.35
2018-05-07T04:32:15.877Z,46.09
2018-05-07T04:34:44.170Z,45.91
2018-05-07T04:37:12.448Z,47.61
2018-05-07T04:39:40.704Z,48.01
2018-05-07T04:42:08.968Z,48.67
2018-05-07T04:47:45.668Z,49.11
2018-05-07T04:50:14.064Z,48.44
2018-05-07T04:52:42.339Z,47.34
2018-05-07T04:55:10.757Z,48.47
2018-05-07T04:57:39.925Z,47.31
2018-05-07T05:00:08.309Z,47.47
2018-05-07T05:02:36.702Z,47.52
2018-05-07T05:05:05.015Z,47.91
2018-05-07T05:07:33.510Z,49.11
2018-05-07T05:10:01.837Z,47.60
2018-05-07T05:12:30.326Z,49.39
2018-05-07T05:14:58.623Z,49.79
2018-05-07T05:17:27.153Z,49.51
2018-05-07T05:19:59.657Z,49.78
2018-05-07T05:22:28.023Z,46.74
2018-05-07T05:24:56.472Z,48.19
2018-05-07T05:27:24.908Z,48.46
2018-05-07T05:29:53.182Z,47.95
2018-05-07T05:32:21.449Z,49.43
2018-05-07T05:34:55.275Z,48.67
2018-05-07T05:37:24.415Z,48.01
2018-05-07T05:39:52.665Z,47.08
2018-05-07T05:42:21.004Z,46.78
2018-05-07T05:44:50.443Z,42.50
2018-05-07T05:47:18.716Z,39.01
2018-05-07T05:49:47.000Z,35.34
2018-05-07T05:52:15.248Z,34.14
2018-05-07T05:54:43.529Z,34.89
2018-05-07T05:57:11.832Z,34.64
2018-05-07T05:59:40.099Z,35.09
2018-05-07T06:02:08.395Z,33.67
2018-05-07T06:04:36.664Z,34.58
2018-05-07T06:07:22.203Z,33.93
2018-05-07T06:09:51.550Z,33.35
2018-05-07T06:12:34.751Z,34.06
2018-05-07T06:21:31.794Z,33.59
2018-05-07T06:24:00.841Z,33.93
2018-05-07T06:26:29.214Z,33.32
2018-05-07T06:28:57.473Z,33.27
2018-05-07T06:31:25.795Z,34.53
2018-05-07T06:33:54.307Z,34.78
2018-05-07T06:36:23.412Z,34.54
2018-05-07T06:38:51.736Z,34.53
2018-05-07T06:41:20.082Z,33.93
2018-05-07T06:44:06.451Z,35.01
2018-05-07T06:46:35.506Z,35.08
2018-05-07T06:49:03.794Z,34.34
2018-05-07T06:51:32.044Z,34.20
2018-05-07T06:54:00.460Z,34.20
2018-05-07T06:56:28.707Z,35.46
2018-05-07T06:58:57.441Z,36.17
2018-05-07T07:01:26.478Z,35.59
2018-05-07T07:03:54.745Z,36.78
2018-05-07T07:06:23.188Z,35.83
2018-05-07T07:08:52.260Z,36.43
2018-05-07T07:11:20.571Z,36.93
2018-05-07T07:13:48.833Z,38.68
2018-05-07T07:16:17.118Z,39.16
2018-05-07T07:18:45.453Z,40.48
2018-05-07T07:21:13.728Z,40.79
2018-05-07T07:23:42.032Z,41.47
2018-05-07T07:26:11.121Z,41.86
2018-05-07T07:28:40.171Z,41.74
2018-05-07T07:31:08.450Z,42.42
2018-05-07T07:33:36.727Z,41.15
2018-05-07T07:36:05.104Z,42.33
2018-05-07T07:38:33.373Z,42.85
2018-05-07T07:41:01.686Z,41.27
2018-05-07T07:43:30.764Z,41.93
2018-05-07T07:45:59.078Z,42.58
2018-05-07T07:48:27.374Z,42.03
2018-05-07T07:50:55.637Z,41.78
2018-05-07T07:53:23.987Z,41.74
2018-05-07T07:55:52.210Z,41.81
2018-05-07T07:58:20.505Z,41.82
2018-05-07T08:00:48.788Z,42.11
2018-05-07T08:03:17.061Z,41.62
2018-05-07T08:05:45.336Z,41.50
2018-05-07T08:08:14.394Z,41.29
2018-05-07T08:10:42.728Z,40.19
2018-05-07T08:13:11.785Z,40.64
2018-05-07T08:15:40.122Z,40.74
2018-05-07T08:18:08.434Z,40.15
2018-05-07T08:20:36.720Z,40.50
2018-05-07T08:23:05.041Z,40.23
2018-05-07T08:25:33.386Z,40.72
2018-05-07T08:28:01.655Z,40.90
2018-05-07T08:30:30.035Z,40.77
2018-05-07T08:32:59.002Z,40.48
2018-05-07T08:35:27.377Z,39.64
2018-05-07T08:37:55.709Z,40.01
2018-05-07T08:40:24.809Z,40.46
2018-05-07T08:42:53.097Z,40.81
2018-05-07T08:45:21.412Z,39.43
2018-05-07T08:47:49.669Z,40.21
2018-05-07T08:50:17.943Z,39.95
2018-05-07T08:52:46.244Z,39.76
2018-05-07T08:55:14.506Z,39.32
2018-05-07T08:57:42.798Z,39.77
2018-05-07T09:00:11.870Z,40.75
2018-05-07T09:02:40.149Z,38.79
2018-05-07T09:05:08.564Z,38.80
2018-05-07T09:07:36.833Z,38.32
2018-05-07T09:10:06.037Z,37.47
2018-05-07T09:12:34.334Z,37.58
2018-05-07T09:15:02.612Z,37.00
2018-05-07T09:17:30.948Z,36.09
2018-05-07T09:19:59.241Z,37.02
2018-05-07T09:22:28.280Z,36.38
2018-05-07T09:24:56.590Z,37.08
2018-05-07T09:27:24.850Z,36.70
2018-05-07T09:29:53.129Z,37.43
2018-05-07T09:32:21.483Z,37.41
2018-05-07T09:34:49.768Z,37.67
2018-05-07T09:37:18.034Z,37.56
2018-05-07T09:39:46.323Z,37.30
2018-05-07T09:42:14.726Z,37.04
2018-05-07T09:44:42.979Z,37.67
2018-05-07T09:47:11.750Z,36.97
2018-05-07T09:49:40.009Z,36.15
2018-05-07T09:52:08.300Z,36.62
2018-05-07T09:54:36.636Z,36.99
2018-05-07T09:57:05.078Z,36.81
2018-05-07T09:59:33.305Z,37.20
2018-05-07T10:02:01.580Z,36.59
2018-05-07T10:04:29.876Z,36.31
2018-05-07T10:06:58.183Z,34.01
2018-05-07T10:09:26.446Z,36.78
2018-05-07T10:11:54.742Z,35.94
2018-05-07T10:14:23.046Z,35.89
2018-05-07T10:16:52.083Z,35.10
2018-05-07T10:19:20.382Z,35.97
2018-05-07T10:21:48.704Z,34.02
2018-05-07T10:24:17.130Z,34.72
2018-05-07T10:26:45.549Z,34.91
2018-05-07T10:29:14.096Z,34.16
2018-05-07T10:31:42.449Z,34.53
2018-05-07T10:34:10.705Z,33.91
2018-05-07T10:36:39.010Z,35.34
2018-05-07T10:39:07.280Z,33.70
2018-05-07T10:41:35.560Z,36.14
2018-05-07T10:44:03.828Z,33.69
2018-05-07T10:46:32.145Z,34.11
2018-05-07T10:49:00.439Z,32.51
2018-05-07T10:51:29.476Z,31.66
2018-05-07T10:53:57.764Z,31.87
2018-05-07T10:56:26.043Z,32.33
2018-05-07T10:58:54.324Z,33.48
2018-05-07T11:01:22.667Z,31.38
2018-05-07T11:03:50.948Z,31.79
2018-05-07T11:08:53.838Z,32.72
2018-05-07T11:11:22.150Z,32.14
2018-05-07T11:13:50.426Z,32.25
2018-05-07T11:16:19.036Z,33.27
2018-05-07T11:18:48.182Z,33.45
2018-05-07T11:21:16.464Z,32.85
2018-05-07T11:23:44.910Z,33.09
2018-05-07T11:26:13.176Z,31.05
2018-05-07T11:28:41.486Z,30.98
2018-05-07T11:31:09.874Z,31.46
2018-05-07T11:33:38.168Z,32.27
2018-05-07T11:36:06.438Z,31.96
2018-05-07T11:38:34.714Z,31.75
2018-05-07T11:41:02.993Z,31.29
2018-05-07T11:43:31.288Z,30.89
2018-05-07T11:46:00.391Z,30.15
2018-05-07T11:48:29.459Z,30.76
2018-05-07T11:50:57.727Z,29.96
2018-05-07T11:53:26.021Z,29.88
2018-05-07T11:55:54.293Z,30.35
2018-05-07T11:58:22.567Z,30.02
2018-05-07T12:00:50.853Z,31.48
2018-05-07T12:03:19.974Z,30.19
2018-05-07T12:05:48.372Z,30.39
2018-05-07T12:08:16.677Z,30.36
2018-05-07T12:10:44.956Z,29.57
2018-05-07T12:13:13.228Z,29.04
2018-05-07T12:15:41.605Z,29.51
2018-05-07T12:18:10.591Z,31.43
2018-05-07T12:20:38.859Z,30.58
2018-05-07T12:23:07.148Z,30.45
2018-05-07T12:25:35.407Z,31.48
2018-05-07T12:28:03.690Z,31.13
2018-05-07T12:30:31.948Z,33.04
2018-05-07T12:33:00.283Z,29.85
2018-05-07T12:35:29.346Z,29.57
2018-05-07T12:37:57.626Z,30.19
2018-05-07T12:40:26.302Z,30.15
2018-05-07T12:42:55.360Z,28.43
2018-05-07T12:45:23.927Z,30.67
2018-05-07T12:47:52.261Z,30.18
2018-05-07T12:50:20.509Z,29.82
2018-05-07T12:52:48.891Z,31.17
2018-05-07T12:55:17.174Z,30.34
2018-05-07T12:57:45.474Z,30.68
2018-05-07T13:00:14.522Z,31.50
2018-05-07T13:02:42.847Z,31.44
2018-05-07T13:05:11.892Z,30.08
2018-05-07T13:07:40.183Z,30.28
2018-05-07T13:10:08.471Z,30.16
2018-05-07T13:12:36.750Z,29.34
2018-05-07T13:15:05.096Z,29.22
2018-05-07T13:17:33.375Z,29.46
2018-05-07T13:20:01.645Z,28.35
2018-05-07T13:22:29.950Z,29.00
2018-05-07T13:24:58.253Z,29.36
2018-05-07T13:27:27.378Z,29.90
2018-05-07T13:29:55.645Z,30.36
2018-05-07T13:32:23.936Z,29.50
2018-05-07T13:34:52.221Z,30.52
2018-05-07T13:37:20.516Z,29.94
2018-05-07T13:39:48.775Z,30.27
2018-05-07T13:42:17.046Z,31.03
2018-05-07T13:44:45.373Z,31.04
2018-05-07T13:47:14.433Z,30.52
2018-05-07T13:49:42.740Z,29.81
2018-05-07T13:52:11.765Z,30.88
2018-05-07T13:54:40.040Z,29.29
2018-05-07T13:57:08.422Z,30.71
2018-05-07T13:59:36.743Z,30.03
2018-05-07T14:02:05.005Z,29.92
2018-05-07T14:04:33.560Z,29.01
2018-05-07T14:07:01.839Z,28.91
2018-05-07T14:09:30.147Z,29.46
2018-05-07T14:11:58.429Z,29.55
2018-05-07T14:14:26.847Z,28.40
2018-05-07T14:16:55.865Z,28.16
2018-05-07T14:19:24.191Z,28.18
2018-05-07T14:21:53.236Z,28.61
2018-05-07T14:24:21.525Z,28.53
2018-05-07T14:26:49.920Z,28.51
2018-05-07T14:29:18.205Z,28.15
2018-05-07T14:31:46.573Z,28.40
2018-05-07T14:34:14.860Z,28.88
2018-05-07T14:36:43.914Z,28.65
2018-05-07T14:39:12.179Z,28.68
2018-05-07T14:41:40.502Z,28.77
2018-05-07T14:44:09.088Z,28.32
2018-05-07T14:46:38.157Z,28.46
2018-05-07T14:49:06.402Z,29.15
2018-05-07T14:51:34.796Z,28.61
2018-05-07T14:54:03.098Z,29.36
2018-05-07T14:56:31.386Z,29.00
2018-05-07T14:59:00.429Z,28.82
2018-05-07T15:01:28.705Z,28.58
2018-05-07T15:03:57.079Z,28.74
2018-05-07T15:06:25.421Z,29.11
2018-05-07T15:08:54.452Z,29.08
2018-05-07T15:11:22.716Z,28.53
2018-05-07T15:13:51.016Z,28.80
2018-05-07T15:16:19.339Z,29.72
2018-05-07T15:18:48.378Z,28.58
2018-05-07T15:21:16.651Z,28.35
2018-05-07T15:23:44.917Z,27.82
2018-05-07T15:26:13.187Z,28.01
2018-05-07T15:28:41.622Z,28.01
2018-05-07T15:31:09.912Z,27.30
2018-05-07T15:33:39.241Z,28.40
2018-05-07T15:36:07.524Z,28.39
2018-05-07T15:38:35.894Z,28.09
2018-05-07T15:41:04.195Z,28.09
2018-05-07T15:43:32.435Z,27.52
2018-05-07T15:46:00.761Z,28.40
2018-05-07T15:48:29.173Z,29.20
2018-05-07T15:50:57.431Z,29.21
2018-05-07T15:53:26.466Z,28.38
2018-05-07T15:55:54.869Z,27.76
2018-05-07T16:07:30.266Z,40.46
2018-05-07T16:41:36.558Z,29.77
2018-05-07T16:44:03.029Z,28.83
2018-05-07T16:46:29.413Z,28.78
2018-05-07T16:48:56.033Z,28.24
2018-05-07T16:51:22.648Z,28.17
2018-05-07T16:53:49.152Z,29.36
2018-05-07T16:56:16.311Z,29.66
2018-05-07T16:58:43.052Z,29.31
2018-05-07T17:01:09.429Z,29.70
2018-05-07T17:03:36.504Z,29.41
2018-05-07T17:06:03.079Z,29.64
2018-05-07T17:08:29.915Z,30.47
2018-05-07T17:10:56.585Z,29.87
2018-05-07T17:13:23.353Z,30.13
2018-05-07T17:15:49.919Z,30.88
2018-05-07T17:18:16.328Z,31.87
2018-05-07T17:20:43.662Z,32.32
2018-05-07T17:23:10.221Z,32.07
2018-05-07T17:25:36.637Z,31.93
2018-05-07T17:28:03.082Z,32.21
2018-05-07T17:30:30.206Z,32.07
2018-05-07T17:32:56.664Z,32.10
2018-05-07T17:35:23.026Z,29.89
2018-05-07T17:37:49.499Z,30.71
2018-05-07T17:40:15.854Z,31.10
2018-05-07T17:42:43.032Z,30.92
2018-05-07T17:45:28.023Z,30.41
2018-05-07T17:48:13.012Z,30.88
2018-05-07T17:50:39.281Z,30.65
2018-05-07T17:53:05.617Z,31.56
2018-05-07T17:55:32.061Z,30.72
2018-05-07T17:57:58.368Z,31.05
2018-05-07T18:00:24.740Z,33.25
2018-05-07T18:02:51.284Z,31.46
2018-05-07T18:05:17.659Z,31.65
2018-05-07T18:07:44.832Z,32.23
2018-05-07T18:10:11.325Z,31.62
2018-05-07T18:12:38.514Z,32.18
2018-05-07T18:15:04.902Z,32.65
2018-05-07T18:17:31.990Z,32.17
2018-05-07T18:19:58.383Z,31.54
2018-05-07T18:22:25.541Z,31.23
2018-05-07T18:24:52.976Z,33.07
2018-05-07T18:27:19.861Z,32.60
2018-05-07T18:29:46.415Z,32.07
2018-05-07T18:32:13.032Z,32.42
2018-05-07T18:34:39.615Z,33.20
2018-05-07T18:37:06.143Z,32.34
2018-05-07T18:39:32.637Z,33.85
2018-05-07T18:41:59.280Z,34.56
2018-05-07T18:44:26.727Z,35.27
2018-05-07T18:46:53.558Z,34.43
2018-05-07T18:49:20.245Z,35.88
2018-05-07T18:51:46.828Z,37.47
2018-05-07T18:54:14.417Z,37.90
2018-05-07T18:56:41.260Z,37.83
2018-05-07T18:59:07.867Z,38.20
2018-05-07T19:01:34.590Z,38.77
2018-05-07T19:04:01.402Z,37.59
2018-05-07T19:06:28.173Z,37.74
2018-05-07T19:08:54.890Z,36.68
2018-05-07T19:11:21.698Z,37.39
2018-05-07T19:13:48.436Z,37.57
2018-05-07T19:16:15.088Z,38.28
2018-05-07T19:18:42.742Z,38.85
2018-05-07T19:21:10.368Z,38.95
2018-05-07T19:23:37.048Z,38.96
2018-05-07T19:26:03.665Z,39.22
2018-05-07T19:28:30.390Z,39.07
2018-05-07T19:31:08.336Z,37.92
2018-05-07T19:33:34.918Z,37.55
2018-05-07T19:36:01.888Z,37.11
2018-05-07T19:38:28.650Z,37.33
2018-05-07T19:40:55.392Z,37.68
2018-05-07T19:43:22.214Z,38.66
2018-05-07T19:45:48.879Z,39.17
2018-05-07T19:48:15.434Z,39.07
2018-05-07T19:50:42.091Z,38.44
2018-05-07T19:53:08.502Z,38.12
2018-05-07T19:55:35.136Z,37.40
2018-05-07T19:58:01.744Z,37.38
2018-05-07T20:00:28.447Z,36.66
2018-05-07T20:02:55.856Z,36.58
2018-05-07T20:05:22.208Z,37.83
2018-05-07T20:07:48.972Z,38.83
2018-05-07T20:10:15.335Z,39.54
2018-05-07T20:12:41.806Z,40.14
2018-05-07T20:15:08.990Z,40.26
2018-05-07T20:17:35.373Z,40.16
2018-05-07T20:20:01.807Z,40.94
2018-05-07T20:22:28.830Z,40.78
2018-05-07T20:24:55.210Z,39.38
2018-05-07T20:27:21.663Z,39.79
2018-05-07T20:29:48.030Z,41.21
2018-05-07T20:32:14.443Z,39.90
2018-05-07T20:34:40.810Z,40.75
2018-05-07T20:37:07.930Z,40.11
2018-05-07T20:39:34.412Z,41.76
2018-05-07T20:42:01.053Z,42.01
2018-05-07T20:44:27.396Z,43.71
2018-05-07T20:46:53.781Z,44.11
2018-05-07T20:49:20.130Z,43.45
2018-05-07T20:51:47.219Z,43.91
2018-05-07T20:54:13.589Z,45.77
2018-05-07T20:56:39.942Z,46.13
2018-05-07T20:59:06.313Z,45.53
2018-05-07T21:01:32.756Z,45.91
2018-05-07T21:03:59.073Z,45.87
2018-05-07T21:06:25.447Z,46.12
2018-05-07T21:08:52.545Z,46.57
2018-05-07T21:11:18.982Z,46.63
2018-05-07T21:13:45.341Z,47.01
2018-05-07T21:16:11.755Z,46.20
2018-05-07T21:18:38.061Z,45.61
2018-05-07T21:21:04.798Z,45.72
2018-05-07T21:23:31.306Z,44.11
2018-05-07T21:25:58.444Z,43.90
2018-05-07T21:28:24.870Z,43.55
2018-05-07T21:30:51.306Z,43.31
2018-05-07T21:33:17.678Z,41.64
2018-05-07T21:35:44.059Z,40.58
2018-05-07T21:38:10.433Z,41.31
2018-05-07T21:40:37.230Z,37.86
2018-05-07T21:43:03.605Z,39.72
2018-05-07T21:45:30.037Z,39.57
2018-05-07T21:47:56.372Z,38.61
2018-05-07T21:50:22.712Z,37.42
2018-05-07T21:52:49.054Z,37.95
2018-05-07T21:55:15.469Z,34.78
2018-05-07T21:57:41.841Z,32.09
2018-05-07T22:00:08.651Z,33.06
2018-05-07T22:02:35.015Z,32.76
2018-05-07T22:05:01.355Z,34.92
2018-05-07T22:07:27.729Z,35.29
2018-05-07T22:09:54.083Z,34.31
2018-05-07T22:12:21.285Z,34.87
2018-05-07T22:14:47.543Z,35.05
2018-05-07T22:17:13.937Z,34.90
2018-05-07T22:19:41.026Z,34.57
2018-05-07T22:22:07.371Z,33.30
2018-05-07T22:24:33.685Z,32.63
2018-05-07T22:27:00.023Z,33.84
2018-05-07T22:29:26.367Z,33.91
2018-05-07T22:31:52.711Z,33.04
2018-05-07T22:34:19.092Z,33.08
2018-05-07T22:36:45.420Z,33.58
2018-05-07T22:39:29.171Z,34.13
2018-05-07T22:41:55.791Z,34.70
2018-05-07T22:44:22.345Z,34.60
2018-05-07T22:46:48.764Z,34.70
2018-05-07T22:49:15.274Z,34.83
2018-05-07T22:51:42.448Z,33.97
2018-05-07T22:54:08.830Z,34.51
2018-05-07T22:56:36.629Z,34.53
2018-05-07T22:59:03.152Z,33.74
2018-05-07T23:01:29.528Z,33.32
2018-05-07T23:03:55.985Z,34.48
2018-05-07T23:06:22.344Z,34.59
2018-05-07T23:08:48.820Z,34.07
2018-05-07T23:11:15.189Z,34.06
2018-05-07T23:13:42.329Z,34.11
2018-05-07T23:16:08.703Z,34.69
2018-05-07T23:18:35.135Z,34.22
2018-05-07T23:21:01.588Z,34.90
2018-05-07T23:23:28.073Z,34.29
2018-05-07T23:25:54.535Z,34.68
2018-05-07T23:28:20.826Z,34.48
2018-05-07T23:30:47.897Z,34.75
2018-05-07T23:33:14.752Z,34.64
2018-05-07T23:35:41.177Z,35.06
2018-05-07T23:38:07.533Z,34.90
2018-05-07T23:40:33.933Z,34.73
2018-05-07T23:43:00.253Z,34.91
2018-05-07T23:45:26.720Z,34.96
2018-05-07T23:47:53.282Z,35.22
2018-05-07T23:50:19.657Z,34.80
2018-05-07T23:52:46.002Z,34.66
2018-05-07T23:55:12.314Z,34.40
2018-05-07T23:57:38.715Z,34.79
